sensor_id;sensor_type;location;lat;lon;timestamp;P1;durP1;ratioP1;P2;durP2;ratioP2
5585;SDS011;2815;54.094;12.112;2023-04-03T00:00:40;6.85;;;1.60;;
5585;SDS011;2815;54.094;12.112;2023-04-03T00:03:08;6.70;;;1.70;;
5585;SDS011;2815;54.094;12.112;2023-04-03T00:05:36;5.20;;;1.50;;
5585;SDS011;2815;54.094;12.112;2023-04-03T00:08:05;3.40;;;1.70;;
5585;SDS011;2815;54.094;12.112;2023-04-03T00:10:34;7.22;;;1.67;;
5585;SDS011;2815;54.094;12.112;2023-04-03T00:13:02;9.45;;;2.40;;
5585;SDS011;2815;54.094;12.112;2023-04-03T00:15:31;3.33;;;1.48;;
5585;SDS011;2815;54.094;12.112;2023-04-03T00:17:59;4.60;;;2.13;;
5585;SDS011;2815;54.094;12.112;2023-04-03T00:20:27;7.30;;;1.67;;
5585;SDS011;2815;54.094;12.112;2023-04-03T00:22:55;7.32;;;1.90;;
5585;SDS011;2815;54.094;12.112;2023-04-03T00:25:24;4.18;;;1.90;;
5585;SDS011;2815;54.094;12.112;2023-04-03T00:27:52;6.00;;;1.85;;
5585;SDS011;2815;54.094;12.112;2023-04-03T00:30:21;7.85;;;1.48;;
5585;SDS011;2815;54.094;12.112;2023-04-03T00:32:49;4.85;;;1.60;;
5585;SDS011;2815;54.094;12.112;2023-04-03T00:35:18;2.42;;;2.00;;
5585;SDS011;2815;54.094;12.112;2023-04-03T00:37:47;3.60;;;1.48;;
5585;SDS011;2815;54.094;12.112;2023-04-03T00:40:16;5.22;;;1.70;;
5585;SDS011;2815;54.094;12.112;2023-04-03T00:42:46;4.03;;;1.60;;
5585;SDS011;2815;54.094;12.112;2023-04-03T00:48:08;6.13;;;1.75;;
5585;SDS011;2815;54.094;12.112;2023-04-03T00:50:40;4.43;;;1.15;;
5585;SDS011;2815;54.094;12.112;2023-04-03T00:53:10;6.22;;;1.65;;
5585;SDS011;2815;54.094;12.112;2023-04-03T00:55:40;6.22;;;1.67;;
5585;SDS011;2815;54.094;12.112;2023-04-03T00:58:10;5.55;;;1.60;;
5585;SDS011;2815;54.094;12.112;2023-04-03T01:00:40;2.95;;;1.52;;
5585;SDS011;2815;54.094;12.112;2023-04-03T01:03:11;3.97;;;1.65;;
5585;SDS011;2815;54.094;12.112;2023-04-03T01:05:39;6.55;;;1.98;;
5585;SDS011;2815;54.094;12.112;2023-04-03T01:08:08;5.65;;;1.67;;
5585;SDS011;2815;54.094;12.112;2023-04-03T01:10:36;4.93;;;1.67;;
5585;SDS011;2815;54.094;12.112;2023-04-03T01:13:17;7.60;;;1.98;;
5585;SDS011;2815;54.094;12.112;2023-04-03T01:15:49;3.33;;;1.40;;
5585;SDS011;2815;54.094;12.112;2023-04-03T01:18:17;4.93;;;1.70;;
5585;SDS011;2815;54.094;12.112;2023-04-03T01:23:47;3.08;;;1.70;;
5585;SDS011;2815;54.094;12.112;2023-04-03T01:26:27;7.90;;;1.75;;
5585;SDS011;2815;54.094;12.112;2023-04-03T01:28:58;4.30;;;1.70;;
5585;SDS011;2815;54.094;12.112;2023-04-03T01:31:27;8.43;;;1.63;;
5585;SDS011;2815;54.094;12.112;2023-04-03T01:33:59;3.67;;;1.67;;
5585;SDS011;2815;54.094;12.112;2023-04-03T01:36:30;6.40;;;1.20;;
5585;SDS011;2815;54.094;12.112;2023-04-03T01:38:58;6.70;;;1.60;;
5585;SDS011;2815;54.094;12.112;2023-04-03T01:41:28;4.82;;;1.40;;
5585;SDS011;2815;54.094;12.112;2023-04-03T01:44:04;5.97;;;1.33;;
5585;SDS011;2815;54.094;12.112;2023-04-03T01:46:32;6.13;;;1.85;;
5585;SDS011;2815;54.094;12.112;2023-04-03T01:49:02;3.13;;;1.15;;
5585;SDS011;2815;54.094;12.112;2023-04-03T01:51:30;5.30;;;1.63;;
5585;SDS011;2815;54.094;12.112;2023-04-03T01:53:59;5.88;;;1.23;;
5585;SDS011;2815;54.094;12.112;2023-04-03T01:56:27;3.25;;;1.27;;
5585;SDS011;2815;54.094;12.112;2023-04-03T01:58:55;5.20;;;1.13;;
5585;SDS011;2815;54.094;12.112;2023-04-03T02:01:23;3.95;;;1.30;;
5585;SDS011;2815;54.094;12.112;2023-04-03T02:03:52;8.23;;;1.35;;
5585;SDS011;2815;54.094;12.112;2023-04-03T02:06:22;6.45;;;1.73;;
5585;SDS011;2815;54.094;12.112;2023-04-03T02:08:50;3.80;;;1.63;;
5585;SDS011;2815;54.094;12.112;2023-04-03T02:11:18;5.78;;;1.35;;
5585;SDS011;2815;54.094;12.112;2023-04-03T02:13:46;7.38;;;1.60;;
5585;SDS011;2815;54.094;12.112;2023-04-03T02:16:14;5.07;;;1.40;;
5585;SDS011;2815;54.094;12.112;2023-04-03T02:18:42;6.03;;;1.42;;
5585;SDS011;2815;54.094;12.112;2023-04-03T02:21:10;7.45;;;1.70;;
5585;SDS011;2815;54.094;12.112;2023-04-03T02:23:40;3.60;;;1.48;;
5585;SDS011;2815;54.094;12.112;2023-04-03T02:26:09;5.20;;;1.30;;
5585;SDS011;2815;54.094;12.112;2023-04-03T02:28:38;10.35;;;1.85;;
5585;SDS011;2815;54.094;12.112;2023-04-03T02:31:07;4.40;;;2.00;;
5585;SDS011;2815;54.094;12.112;2023-04-03T02:33:38;10.20;;;1.67;;
5585;SDS011;2815;54.094;12.112;2023-04-03T02:36:08;6.50;;;1.90;;
5585;SDS011;2815;54.094;12.112;2023-04-03T02:38:40;6.00;;;1.80;;
5585;SDS011;2815;54.094;12.112;2023-04-03T02:41:10;5.82;;;1.48;;
5585;SDS011;2815;54.094;12.112;2023-04-03T02:43:39;2.40;;;1.30;;
5585;SDS011;2815;54.094;12.112;2023-04-03T02:46:07;5.60;;;1.33;;
5585;SDS011;2815;54.094;12.112;2023-04-03T02:48:35;6.30;;;1.25;;
5585;SDS011;2815;54.094;12.112;2023-04-03T02:51:04;8.43;;;1.25;;
5585;SDS011;2815;54.094;12.112;2023-04-03T02:53:32;8.13;;;1.30;;
5585;SDS011;2815;54.094;12.112;2023-04-03T02:56:07;5.22;;;1.50;;
5585;SDS011;2815;54.094;12.112;2023-04-03T02:58:35;2.10;;;1.10;;
5585;SDS011;2815;54.094;12.112;2023-04-03T03:01:06;4.63;;;1.40;;
5585;SDS011;2815;54.094;12.112;2023-04-03T03:03:34;6.40;;;1.25;;
5585;SDS011;2815;54.094;12.112;2023-04-03T03:06:02;6.88;;;1.13;;
5585;SDS011;2815;54.094;12.112;2023-04-03T03:08:32;3.35;;;1.02;;
5585;SDS011;2815;54.094;12.112;2023-04-03T03:11:00;2.63;;;1.17;;
5585;SDS011;2815;54.094;12.112;2023-04-03T03:13:30;4.95;;;1.13;;
5585;SDS011;2815;54.094;12.112;2023-04-03T03:15:58;4.10;;;0.90;;
5585;SDS011;2815;54.094;12.112;2023-04-03T03:18:27;7.03;;;1.10;;
5585;SDS011;2815;54.094;12.112;2023-04-03T03:20:55;3.03;;;1.13;;
5585;SDS011;2815;54.094;12.112;2023-04-03T03:23:25;5.82;;;1.02;;
5585;SDS011;2815;54.094;12.112;2023-04-03T03:25:54;4.05;;;1.30;;
5585;SDS011;2815;54.094;12.112;2023-04-03T03:28:22;3.83;;;1.10;;
5585;SDS011;2815;54.094;12.112;2023-04-03T03:30:52;5.75;;;1.10;;
5585;SDS011;2815;54.094;12.112;2023-04-03T03:33:21;2.20;;;1.10;;
5585;SDS011;2815;54.094;12.112;2023-04-03T03:35:49;4.13;;;1.10;;
5585;SDS011;2815;54.094;12.112;2023-04-03T03:38:17;5.85;;;1.42;;
5585;SDS011;2815;54.094;12.112;2023-04-03T03:40:46;1.63;;;0.93;;
5585;SDS011;2815;54.094;12.112;2023-04-03T03:43:16;7.18;;;1.30;;
5585;SDS011;2815;54.094;12.112;2023-04-03T03:45:46;5.30;;;1.63;;
5585;SDS011;2815;54.094;12.112;2023-04-03T03:48:19;3.75;;;1.02;;
5585;SDS011;2815;54.094;12.112;2023-04-03T03:50:47;3.97;;;1.20;;
5585;SDS011;2815;54.094;12.112;2023-04-03T03:53:17;4.95;;;1.20;;
5585;SDS011;2815;54.094;12.112;2023-04-03T03:55:46;6.03;;;1.52;;
5585;SDS011;2815;54.094;12.112;2023-04-03T03:58:15;3.63;;;1.40;;
5585;SDS011;2815;54.094;12.112;2023-04-03T04:00:43;5.13;;;1.60;;
5585;SDS011;2815;54.094;12.112;2023-04-03T04:03:11;9.18;;;1.48;;
5585;SDS011;2815;54.094;12.112;2023-04-03T04:05:41;2.30;;;0.88;;
5585;SDS011;2815;54.094;12.112;2023-04-03T04:08:09;4.70;;;0.90;;
5585;SDS011;2815;54.094;12.112;2023-04-03T04:10:38;5.03;;;1.05;;
5585;SDS011;2815;54.094;12.112;2023-04-03T04:13:07;7.22;;;1.55;;
5585;SDS011;2815;54.094;12.112;2023-04-03T04:15:35;8.00;;;1.73;;
5585;SDS011;2815;54.094;12.112;2023-04-03T04:18:04;9.38;;;1.67;;
5585;SDS011;2815;54.094;12.112;2023-04-03T04:20:33;9.68;;;1.20;;
5585;SDS011;2815;54.094;12.112;2023-04-03T04:23:02;2.53;;;1.58;;
5585;SDS011;2815;54.094;12.112;2023-04-03T04:25:30;2.05;;;1.15;;
5585;SDS011;2815;54.094;12.112;2023-04-03T04:27:59;4.13;;;1.40;;
5585;SDS011;2815;54.094;12.112;2023-04-03T04:30:27;4.18;;;1.20;;
5585;SDS011;2815;54.094;12.112;2023-04-03T04:32:56;1.92;;;1.08;;
5585;SDS011;2815;54.094;12.112;2023-04-03T04:35:25;6.22;;;1.50;;
5585;SDS011;2815;54.094;12.112;2023-04-03T04:37:53;4.43;;;1.40;;
5585;SDS011;2815;54.094;12.112;2023-04-03T04:40:22;3.30;;;1.15;;
5585;SDS011;2815;54.094;12.112;2023-04-03T04:42:51;6.47;;;1.20;;
5585;SDS011;2815;54.094;12.112;2023-04-03T04:45:19;3.42;;;1.23;;
5585;SDS011;2815;54.094;12.112;2023-04-03T04:47:48;4.68;;;1.20;;
5585;SDS011;2815;54.094;12.112;2023-04-03T04:50:18;4.85;;;1.52;;
5585;SDS011;2815;54.094;12.112;2023-04-03T04:52:47;7.13;;;1.40;;
5585;SDS011;2815;54.094;12.112;2023-04-03T04:55:15;4.50;;;1.58;;
5585;SDS011;2815;54.094;12.112;2023-04-03T04:57:45;6.57;;;1.30;;
5585;SDS011;2815;54.094;12.112;2023-04-03T05:00:14;2.70;;;1.40;;
5585;SDS011;2815;54.094;12.112;2023-04-03T05:02:43;4.93;;;1.40;;
5585;SDS011;2815;54.094;12.112;2023-04-03T05:05:12;10.15;;;1.38;;
5585;SDS011;2815;54.094;12.112;2023-04-03T05:07:40;5.22;;;1.63;;
5585;SDS011;2815;54.094;12.112;2023-04-03T05:10:09;6.25;;;1.13;;
5585;SDS011;2815;54.094;12.112;2023-04-03T05:12:38;4.47;;;1.42;;
5585;SDS011;2815;54.094;12.112;2023-04-03T05:15:09;4.15;;;0.98;;
5585;SDS011;2815;54.094;12.112;2023-04-03T05:17:37;1.65;;;0.95;;
5585;SDS011;2815;54.094;12.112;2023-04-03T05:20:10;2.92;;;1.17;;
5585;SDS011;2815;54.094;12.112;2023-04-03T05:22:39;4.75;;;1.23;;
5585;SDS011;2815;54.094;12.112;2023-04-03T05:25:08;2.05;;;1.15;;
5585;SDS011;2815;54.094;12.112;2023-04-03T05:27:38;4.40;;;1.10;;
5585;SDS011;2815;54.094;12.112;2023-04-03T05:30:09;3.15;;;1.15;;
5585;SDS011;2815;54.094;12.112;2023-04-03T05:32:39;3.80;;;1.17;;
5585;SDS011;2815;54.094;12.112;2023-04-03T05:35:28;2.72;;;1.60;;
5585;SDS011;2815;54.094;12.112;2023-04-03T05:37:58;5.60;;;1.08;;
5585;SDS011;2815;54.094;12.112;2023-04-03T05:40:26;3.67;;;1.10;;
5585;SDS011;2815;54.094;12.112;2023-04-03T05:42:56;3.67;;;1.02;;
5585;SDS011;2815;54.094;12.112;2023-04-03T05:45:29;6.95;;;1.27;;
5585;SDS011;2815;54.094;12.112;2023-04-03T05:47:58;5.22;;;1.42;;
5585;SDS011;2815;54.094;12.112;2023-04-03T05:50:26;4.93;;;1.40;;
5585;SDS011;2815;54.094;12.112;2023-04-03T05:52:56;4.60;;;1.33;;
5585;SDS011;2815;54.094;12.112;2023-04-03T05:55:27;5.50;;;1.00;;
5585;SDS011;2815;54.094;12.112;2023-04-03T05:57:55;6.93;;;1.02;;
5585;SDS011;2815;54.094;12.112;2023-04-03T06:00:23;5.38;;;1.30;;
5585;SDS011;2815;54.094;12.112;2023-04-03T06:03:00;4.97;;;0.88;;
5585;SDS011;2815;54.094;12.112;2023-04-03T06:05:29;3.35;;;1.10;;
5585;SDS011;2815;54.094;12.112;2023-04-03T06:07:57;2.95;;;1.02;;
5585;SDS011;2815;54.094;12.112;2023-04-03T06:10:25;2.55;;;0.70;;
5585;SDS011;2815;54.094;12.112;2023-04-03T06:12:53;2.25;;;1.17;;
5585;SDS011;2815;54.094;12.112;2023-04-03T06:15:22;2.05;;;0.80;;
5585;SDS011;2815;54.094;12.112;2023-04-03T06:17:50;1.38;;;0.90;;
5585;SDS011;2815;54.094;12.112;2023-04-03T06:20:19;4.00;;;1.63;;
5585;SDS011;2815;54.094;12.112;2023-04-03T06:23:07;7.47;;;0.95;;
5585;SDS011;2815;54.094;12.112;2023-04-03T06:25:35;2.03;;;0.90;;
5585;SDS011;2815;54.094;12.112;2023-04-03T06:28:03;2.40;;;0.80;;
5585;SDS011;2815;54.094;12.112;2023-04-03T06:30:31;3.00;;;0.77;;
5585;SDS011;2815;54.094;12.112;2023-04-03T06:32:59;5.30;;;1.00;;
5585;SDS011;2815;54.094;12.112;2023-04-03T06:35:28;5.70;;;0.90;;
5585;SDS011;2815;54.094;12.112;2023-04-03T06:37:56;3.40;;;0.98;;
5585;SDS011;2815;54.094;12.112;2023-04-03T06:40:25;1.60;;;0.60;;
5585;SDS011;2815;54.094;12.112;2023-04-03T06:42:53;4.57;;;0.82;;
5585;SDS011;2815;54.094;12.112;2023-04-03T06:45:21;0.85;;;0.52;;
5585;SDS011;2815;54.094;12.112;2023-04-03T06:47:51;6.00;;;0.90;;
5585;SDS011;2815;54.094;12.112;2023-04-03T06:50:19;5.43;;;1.15;;
5585;SDS011;2815;54.094;12.112;2023-04-03T06:52:49;2.95;;;1.02;;
5585;SDS011;2815;54.094;12.112;2023-04-03T06:55:17;1.05;;;0.65;;
5585;SDS011;2815;54.094;12.112;2023-04-03T06:57:45;0.82;;;0.60;;
5585;SDS011;2815;54.094;12.112;2023-04-03T07:00:13;4.10;;;1.00;;
5585;SDS011;2815;54.094;12.112;2023-04-03T07:02:42;4.40;;;0.90;;
5585;SDS011;2815;54.094;12.112;2023-04-03T07:05:10;5.80;;;0.80;;
5585;SDS011;2815;54.094;12.112;2023-04-03T07:07:38;1.55;;;0.80;;
5585;SDS011;2815;54.094;12.112;2023-04-03T07:10:09;8.68;;;1.17;;
5585;SDS011;2815;54.094;12.112;2023-04-03T07:12:37;2.90;;;0.98;;
5585;SDS011;2815;54.094;12.112;2023-04-03T07:15:06;4.63;;;0.93;;
5585;SDS011;2815;54.094;12.112;2023-04-03T07:17:35;1.73;;;0.93;;
5585;SDS011;2815;54.094;12.112;2023-04-03T07:20:03;2.67;;;1.13;;
5585;SDS011;2815;54.094;12.112;2023-04-03T07:22:32;3.83;;;0.98;;
5585;SDS011;2815;54.094;12.112;2023-04-03T07:25:00;4.47;;;0.85;;
5585;SDS011;2815;54.094;12.112;2023-04-03T07:27:30;7.10;;;1.08;;
5585;SDS011;2815;54.094;12.112;2023-04-03T07:29:58;1.50;;;0.68;;
5585;SDS011;2815;54.094;12.112;2023-04-03T07:32:26;9.18;;;2.80;;
5585;SDS011;2815;54.094;12.112;2023-04-03T07:34:54;7.40;;;1.15;;
5585;SDS011;2815;54.094;12.112;2023-04-03T07:37:22;2.13;;;0.75;;
5585;SDS011;2815;54.094;12.112;2023-04-03T07:39:50;3.00;;;0.95;;
5585;SDS011;2815;54.094;12.112;2023-04-03T07:42:18;5.07;;;0.75;;
5585;SDS011;2815;54.094;12.112;2023-04-03T07:44:48;4.85;;;0.98;;
5585;SDS011;2815;54.094;12.112;2023-04-03T07:47:16;3.15;;;0.88;;
5585;SDS011;2815;54.094;12.112;2023-04-03T07:49:44;2.85;;;1.20;;
5585;SDS011;2815;54.094;12.112;2023-04-03T07:52:12;2.85;;;0.75;;
5585;SDS011;2815;54.094;12.112;2023-04-03T07:54:41;1.98;;;0.50;;
5585;SDS011;2815;54.094;12.112;2023-04-03T07:57:09;2.25;;;0.82;;
5585;SDS011;2815;54.094;12.112;2023-04-03T07:59:37;6.28;;;1.10;;
5585;SDS011;2815;54.094;12.112;2023-04-03T08:02:08;3.25;;;0.88;;
5585;SDS011;2815;54.094;12.112;2023-04-03T08:04:36;2.70;;;0.70;;
5585;SDS011;2815;54.094;12.112;2023-04-03T08:07:04;2.90;;;0.90;;
5585;SDS011;2815;54.094;12.112;2023-04-03T08:09:32;2.05;;;0.50;;
5585;SDS011;2815;54.094;12.112;2023-04-03T08:12:01;6.07;;;0.73;;
5585;SDS011;2815;54.094;12.112;2023-04-03T08:14:30;1.23;;;0.60;;
5585;SDS011;2815;54.094;12.112;2023-04-03T08:17:00;5.40;;;1.30;;
5585;SDS011;2815;54.094;12.112;2023-04-03T08:19:32;1.02;;;0.73;;
5585;SDS011;2815;54.094;12.112;2023-04-03T08:22:00;2.45;;;0.70;;
5585;SDS011;2815;54.094;12.112;2023-04-03T08:24:29;2.97;;;0.90;;
5585;SDS011;2815;54.094;12.112;2023-04-03T08:26:58;3.25;;;0.90;;
5585;SDS011;2815;54.094;12.112;2023-04-03T08:29:26;3.05;;;0.68;;
5585;SDS011;2815;54.094;12.112;2023-04-03T08:31:55;2.85;;;0.98;;
5585;SDS011;2815;54.094;12.112;2023-04-03T08:34:24;3.65;;;0.60;;
5585;SDS011;2815;54.094;12.112;2023-04-03T08:36:54;0.95;;;0.80;;
5585;SDS011;2815;54.094;12.112;2023-04-03T08:39:22;6.18;;;1.10;;
5585;SDS011;2815;54.094;12.112;2023-04-03T08:41:50;1.77;;;0.75;;
5585;SDS011;2815;54.094;12.112;2023-04-03T08:44:24;2.38;;;0.90;;
5585;SDS011;2815;54.094;12.112;2023-04-03T08:46:56;2.20;;;0.95;;
5585;SDS011;2815;54.094;12.112;2023-04-03T08:49:31;7.72;;;1.02;;
5585;SDS011;2815;54.094;12.112;2023-04-03T08:52:04;1.30;;;0.80;;
5585;SDS011;2815;54.094;12.112;2023-04-03T08:54:33;4.60;;;0.93;;
5585;SDS011;2815;54.094;12.112;2023-04-03T08:57:04;2.28;;;0.68;;
5585;SDS011;2815;54.094;12.112;2023-04-03T08:59:34;1.27;;;0.80;;
5585;SDS011;2815;54.094;12.112;2023-04-03T09:02:04;1.20;;;0.70;;
5585;SDS011;2815;54.094;12.112;2023-04-03T09:04:39;1.10;;;0.77;;
5585;SDS011;2815;54.094;12.112;2023-04-03T09:07:11;2.63;;;0.95;;
5585;SDS011;2815;54.094;12.112;2023-04-03T09:09:42;2.15;;;0.70;;
5585;SDS011;2815;54.094;12.112;2023-04-03T09:12:12;2.95;;;1.30;;
5585;SDS011;2815;54.094;12.112;2023-04-03T09:14:46;1.83;;;0.50;;
5585;SDS011;2815;54.094;12.112;2023-04-03T09:17:21;2.55;;;0.63;;
5585;SDS011;2815;54.094;12.112;2023-04-03T09:20:02;3.50;;;1.10;;
5585;SDS011;2815;54.094;12.112;2023-04-03T09:22:40;0.60;;;0.60;;
5585;SDS011;2815;54.094;12.112;2023-04-03T09:25:18;2.85;;;0.60;;
5585;SDS011;2815;54.094;12.112;2023-04-03T09:27:49;6.35;;;0.90;;
5585;SDS011;2815;54.094;12.112;2023-04-03T09:30:18;3.97;;;0.85;;
5585;SDS011;2815;54.094;12.112;2023-04-03T09:32:50;10.73;;;1.67;;
5585;SDS011;2815;54.094;12.112;2023-04-03T09:35:21;8.45;;;0.85;;
5585;SDS011;2815;54.094;12.112;2023-04-03T09:38:16;6.50;;;0.43;;
5585;SDS011;2815;54.094;12.112;2023-04-03T09:43:55;0.70;;;0.60;;
5585;SDS011;2815;54.094;12.112;2023-04-03T09:46:29;1.38;;;0.50;;
5585;SDS011;2815;54.094;12.112;2023-04-03T09:48:59;2.80;;;0.70;;
5585;SDS011;2815;54.094;12.112;2023-04-03T09:51:35;2.13;;;0.70;;
5585;SDS011;2815;54.094;12.112;2023-04-03T09:56:59;8.90;;;1.20;;
5585;SDS011;2815;54.094;12.112;2023-04-03T09:59:29;5.03;;;0.73;;
5585;SDS011;2815;54.094;12.112;2023-04-03T10:02:00;3.92;;;0.90;;
5585;SDS011;2815;54.094;12.112;2023-04-03T10:04:37;4.40;;;0.65;;
5585;SDS011;2815;54.094;12.112;2023-04-03T10:09:58;6.93;;;0.80;;
5585;SDS011;2815;54.094;12.112;2023-04-03T10:12:29;4.55;;;0.90;;
5585;SDS011;2815;54.094;12.112;2023-04-03T10:14:58;3.80;;;0.85;;
5585;SDS011;2815;54.094;12.112;2023-04-03T10:17:30;0.93;;;0.70;;
5585;SDS011;2815;54.094;12.112;2023-04-03T10:20:07;1.10;;;0.65;;
5585;SDS011;2815;54.094;12.112;2023-04-03T10:22:44;2.38;;;0.50;;
5585;SDS011;2815;54.094;12.112;2023-04-03T10:25:29;2.65;;;0.80;;
5585;SDS011;2815;54.094;12.112;2023-04-03T10:28:00;3.22;;;0.82;;
5585;SDS011;2815;54.094;12.112;2023-04-03T10:30:31;1.92;;;0.50;;
5585;SDS011;2815;54.094;12.112;2023-04-03T10:33:08;3.50;;;0.80;;
5585;SDS011;2815;54.094;12.112;2023-04-03T10:35:48;2.28;;;0.82;;
5585;SDS011;2815;54.094;12.112;2023-04-03T10:38:23;2.05;;;0.57;;
5585;SDS011;2815;54.094;12.112;2023-04-03T10:41:01;1.05;;;0.60;;
5585;SDS011;2815;54.094;12.112;2023-04-03T10:43:33;4.43;;;0.70;;
5585;SDS011;2815;54.094;12.112;2023-04-03T10:46:06;5.00;;;0.75;;
5585;SDS011;2815;54.094;12.112;2023-04-03T10:48:44;1.58;;;0.70;;
5585;SDS011;2815;54.094;12.112;2023-04-03T10:51:24;1.73;;;0.70;;
5585;SDS011;2815;54.094;12.112;2023-04-03T10:53:55;2.47;;;0.93;;
5585;SDS011;2815;54.094;12.112;2023-04-03T10:56:29;3.08;;;1.15;;
5585;SDS011;2815;54.094;12.112;2023-04-03T10:59:02;5.72;;;0.73;;
5585;SDS011;2815;54.094;12.112;2023-04-03T11:01:37;2.92;;;0.90;;
5585;SDS011;2815;54.094;12.112;2023-04-03T11:04:08;6.47;;;1.10;;
5585;SDS011;2815;54.094;12.112;2023-04-03T11:06:37;2.33;;;0.80;;
5585;SDS011;2815;54.094;12.112;2023-04-03T11:09:07;2.10;;;0.65;;
5585;SDS011;2815;54.094;12.112;2023-04-03T11:11:44;5.25;;;0.70;;
5585;SDS011;2815;54.094;12.112;2023-04-03T11:14:25;1.80;;;0.98;;
5585;SDS011;2815;54.094;12.112;2023-04-03T11:16:59;3.25;;;1.00;;
5585;SDS011;2815;54.094;12.112;2023-04-03T11:19:34;4.78;;;0.90;;
5585;SDS011;2815;54.094;12.112;2023-04-03T11:22:04;3.92;;;0.80;;
5585;SDS011;2815;54.094;12.112;2023-04-03T11:24:36;3.40;;;0.68;;
5585;SDS011;2815;54.094;12.112;2023-04-03T11:27:09;2.42;;;0.70;;
5585;SDS011;2815;54.094;12.112;2023-04-03T11:29:41;4.10;;;0.80;;
5585;SDS011;2815;54.094;12.112;2023-04-03T11:32:16;1.10;;;0.68;;
5585;SDS011;2815;54.094;12.112;2023-04-03T11:34:54;1.98;;;0.70;;
5585;SDS011;2815;54.094;12.112;2023-04-03T11:37:27;3.17;;;0.77;;
5585;SDS011;2815;54.094;12.112;2023-04-03T11:39:58;2.85;;;0.68;;
5585;SDS011;2815;54.094;12.112;2023-04-03T11:42:32;2.47;;;0.80;;
5585;SDS011;2815;54.094;12.112;2023-04-03T11:48:07;6.00;;;0.90;;
5585;SDS011;2815;54.094;12.112;2023-04-03T11:57:23;3.70;;;0.77;;
5585;SDS011;2815;54.094;12.112;2023-04-03T12:15:26;8.05;;;1.33;;
5585;SDS011;2815;54.094;12.112;2023-04-03T12:18:31;5.38;;;0.95;;
5585;SDS011;2815;54.094;12.112;2023-04-03T12:21:12;9.25;;;1.42;;
5585;SDS011;2815;54.094;12.112;2023-04-03T12:23:57;2.75;;;1.17;;
5585;SDS011;2815;54.094;12.112;2023-04-03T12:26:30;6.30;;;1.30;;
5585;SDS011;2815;54.094;12.112;2023-04-03T12:29:17;12.57;;;1.40;;
5585;SDS011;2815;54.094;12.112;2023-04-03T12:31:54;5.78;;;2.30;;
5585;SDS011;2815;54.094;12.112;2023-04-03T12:34:42;7.55;;;0.85;;
5585;SDS011;2815;54.094;12.112;2023-04-03T12:37:39;6.40;;;1.20;;
5585;SDS011;2815;54.094;12.112;2023-04-03T12:40:16;7.63;;;0.85;;
5585;SDS011;2815;54.094;12.112;2023-04-03T12:43:02;20.48;;;1.58;;
5585;SDS011;2815;54.094;12.112;2023-04-03T12:45:59;2.58;;;0.60;;
5585;SDS011;2815;54.094;12.112;2023-04-03T12:48:32;5.45;;;1.05;;
5585;SDS011;2815;54.094;12.112;2023-04-03T12:51:05;3.30;;;0.80;;
5585;SDS011;2815;54.094;12.112;2023-04-03T12:53:33;6.85;;;1.00;;
5585;SDS011;2815;54.094;12.112;2023-04-03T12:56:18;3.33;;;0.93;;
5585;SDS011;2815;54.094;12.112;2023-04-03T12:58:48;6.53;;;1.10;;
5585;SDS011;2815;54.094;12.112;2023-04-03T13:01:17;12.65;;;1.05;;
5585;SDS011;2815;54.094;12.112;2023-04-03T13:03:48;27.92;;;1.77;;
5585;SDS011;2815;54.094;12.112;2023-04-03T13:06:18;3.17;;;0.80;;
5585;SDS011;2815;54.094;12.112;2023-04-03T13:08:48;5.07;;;0.80;;
5585;SDS011;2815;54.094;12.112;2023-04-03T13:11:17;4.60;;;0.82;;
5585;SDS011;2815;54.094;12.112;2023-04-03T13:13:56;10.40;;;1.10;;
5585;SDS011;2815;54.094;12.112;2023-04-03T13:16:25;7.18;;;1.40;;
5585;SDS011;2815;54.094;12.112;2023-04-03T13:18:55;4.85;;;1.23;;
5585;SDS011;2815;54.094;12.112;2023-04-03T13:21:24;10.40;;;0.85;;
5585;SDS011;2815;54.094;12.112;2023-04-03T13:23:54;9.77;;;1.00;;
5585;SDS011;2815;54.094;12.112;2023-04-03T13:26:40;4.97;;;0.88;;
5585;SDS011;2815;54.094;12.112;2023-04-03T13:29:19;4.85;;;1.13;;
5585;SDS011;2815;54.094;12.112;2023-04-03T13:31:57;8.30;;;0.80;;
5585;SDS011;2815;54.094;12.112;2023-04-03T13:34:28;5.50;;;0.82;;
5585;SDS011;2815;54.094;12.112;2023-04-03T13:37:00;3.78;;;0.80;;
5585;SDS011;2815;54.094;12.112;2023-04-03T13:39:31;6.35;;;0.88;;
5585;SDS011;2815;54.094;12.112;2023-04-03T13:42:01;7.53;;;0.90;;
5585;SDS011;2815;54.094;12.112;2023-04-03T13:44:32;5.30;;;1.10;;
5585;SDS011;2815;54.094;12.112;2023-04-03T13:47:14;1.60;;;0.70;;
5585;SDS011;2815;54.094;12.112;2023-04-03T13:49:45;5.57;;;0.80;;
5585;SDS011;2815;54.094;12.112;2023-04-03T13:52:27;3.70;;;0.80;;
5585;SDS011;2815;54.094;12.112;2023-04-03T13:54:58;1.38;;;0.60;;
5585;SDS011;2815;54.094;12.112;2023-04-03T13:57:31;2.38;;;0.75;;
5585;SDS011;2815;54.094;12.112;2023-04-03T14:02:47;5.60;;;0.70;;
5585;SDS011;2815;54.094;12.112;2023-04-03T14:05:17;3.67;;;0.80;;
5585;SDS011;2815;54.094;12.112;2023-04-03T14:07:47;1.48;;;0.57;;
5585;SDS011;2815;54.094;12.112;2023-04-03T14:10:15;2.47;;;0.88;;
5585;SDS011;2815;54.094;12.112;2023-04-03T14:12:43;2.90;;;1.08;;
5585;SDS011;2815;54.094;12.112;2023-04-03T14:15:15;3.70;;;0.93;;
5585;SDS011;2815;54.094;12.112;2023-04-03T14:17:45;4.32;;;0.88;;
5585;SDS011;2815;54.094;12.112;2023-04-03T14:20:14;3.22;;;0.70;;
5585;SDS011;2815;54.094;12.112;2023-04-03T14:22:44;3.17;;;0.68;;
5585;SDS011;2815;54.094;12.112;2023-04-03T14:25:12;3.65;;;0.70;;
5585;SDS011;2815;54.094;12.112;2023-04-03T14:27:42;2.80;;;0.80;;
5585;SDS011;2815;54.094;12.112;2023-04-03T14:30:13;3.42;;;0.55;;
5585;SDS011;2815;54.094;12.112;2023-04-03T14:32:43;2.38;;;0.50;;
5585;SDS011;2815;54.094;12.112;2023-04-03T14:35:12;3.30;;;0.70;;
5585;SDS011;2815;54.094;12.112;2023-04-03T14:37:42;2.58;;;0.70;;
5585;SDS011;2815;54.094;12.112;2023-04-03T14:40:11;4.30;;;0.85;;
5585;SDS011;2815;54.094;12.112;2023-04-03T14:42:41;3.35;;;0.98;;
5585;SDS011;2815;54.094;12.112;2023-04-03T14:45:10;3.45;;;0.98;;
5585;SDS011;2815;54.094;12.112;2023-04-03T14:47:40;2.70;;;0.60;;
5585;SDS011;2815;54.094;12.112;2023-04-03T14:50:12;3.15;;;0.60;;
5585;SDS011;2815;54.094;12.112;2023-04-03T14:52:44;4.72;;;0.70;;
5585;SDS011;2815;54.094;12.112;2023-04-03T14:55:14;1.63;;;0.60;;
5585;SDS011;2815;54.094;12.112;2023-04-03T14:57:42;2.28;;;0.75;;
5585;SDS011;2815;54.094;12.112;2023-04-03T15:00:12;3.75;;;0.85;;
5585;SDS011;2815;54.094;12.112;2023-04-03T15:02:42;1.95;;;0.80;;
5585;SDS011;2815;54.094;12.112;2023-04-03T15:05:11;3.20;;;1.00;;
5585;SDS011;2815;54.094;12.112;2023-04-03T15:07:41;9.57;;;1.55;;
5585;SDS011;2815;54.094;12.112;2023-04-03T15:10:16;5.65;;;1.15;;
5585;SDS011;2815;54.094;12.112;2023-04-03T15:12:45;2.83;;;0.63;;
5585;SDS011;2815;54.094;12.112;2023-04-03T15:15:14;1.25;;;0.65;;
5585;SDS011;2815;54.094;12.112;2023-04-03T15:17:43;3.33;;;0.80;;
5585;SDS011;2815;54.094;12.112;2023-04-03T15:20:13;4.10;;;0.90;;
5585;SDS011;2815;54.094;12.112;2023-04-03T15:22:42;1.70;;;0.70;;
5585;SDS011;2815;54.094;12.112;2023-04-03T15:25:10;2.75;;;0.73;;
5585;SDS011;2815;54.094;12.112;2023-04-03T15:27:40;3.55;;;0.90;;
5585;SDS011;2815;54.094;12.112;2023-04-03T15:30:10;3.38;;;0.80;;
5585;SDS011;2815;54.094;12.112;2023-04-03T15:32:41;1.98;;;0.75;;
5585;SDS011;2815;54.094;12.112;2023-04-03T15:35:09;2.88;;;0.70;;
5585;SDS011;2815;54.094;12.112;2023-04-03T15:37:37;4.13;;;0.85;;
5585;SDS011;2815;54.094;12.112;2023-04-03T15:40:06;4.72;;;1.10;;
5585;SDS011;2815;54.094;12.112;2023-04-03T15:42:34;1.33;;;0.85;;
5585;SDS011;2815;54.094;12.112;2023-04-03T15:45:04;3.78;;;0.88;;
5585;SDS011;2815;54.094;12.112;2023-04-03T15:47:33;2.17;;;0.70;;
5585;SDS011;2815;54.094;12.112;2023-04-03T15:50:01;2.85;;;0.90;;
5585;SDS011;2815;54.094;12.112;2023-04-03T15:52:32;3.10;;;0.98;;
5585;SDS011;2815;54.094;12.112;2023-04-03T15:55:00;2.78;;;0.88;;
5585;SDS011;2815;54.094;12.112;2023-04-03T15:57:28;2.72;;;0.90;;
5585;SDS011;2815;54.094;12.112;2023-04-03T16:02:33;2.00;;;1.17;;
5585;SDS011;2815;54.094;12.112;2023-04-03T16:05:02;4.85;;;0.90;;
5585;SDS011;2815;54.094;12.112;2023-04-03T16:07:30;1.38;;;0.70;;